createdAt,value
2023-01-03T00:00:28.839Z,98.40
2023-01-03T00:03:23.058Z,98.40
2023-01-03T00:05:54.601Z,98.40
2023-01-03T00:08:26.009Z,98.40
2023-01-03T00:10:57.625Z,98.30
2023-01-03T00:13:26.072Z,98.30
2023-01-03T00:15:57.091Z,98.30
2023-01-03T00:18:30.743Z,98.40
2023-01-03T00:21:06.928Z,98.30
2023-01-03T00:23:38.111Z,98.30
2023-01-03T00:26:14.484Z,98.60
2023-01-03T00:28:46.239Z,98.30
2023-01-03T00:31:17.742Z,98.30
2023-01-03T00:33:51.749Z,98.30
2023-01-03T00:36:22.738Z,98.20
2023-01-03T00:38:54.613Z,98.20
2023-01-03T00:41:25.650Z,98.10
2023-01-03T00:43:56.926Z,98.20
2023-01-03T00:46:27.780Z,98.10
2023-01-03T00:49:01.789Z,98.10
2023-01-03T00:51:36.393Z,98.10
2023-01-03T00:54:09.727Z,98.00
2023-01-03T00:56:43.031Z,97.90
2023-01-03T00:59:14.877Z,98.20
2023-01-03T01:01:48.374Z,97.90
2023-01-03T01:04:25.982Z,97.80
2023-01-03T01:06:58.066Z,97.70
2023-01-03T01:09:31.091Z,97.70
2023-01-03T01:12:02.959Z,97.60
2023-01-03T01:14:35.071Z,97.50
2023-01-03T01:17:08.270Z,97.50
2023-01-03T01:19:45.351Z,97.40
2023-01-03T01:22:16.272Z,97.40
2023-01-03T01:24:48.655Z,97.40
2023-01-03T01:27:19.384Z,97.30
2023-01-03T01:29:50.493Z,97.30
2023-01-03T01:32:21.249Z,97.30
2023-01-03T01:34:55.124Z,97.30
2023-01-03T01:37:26.718Z,97.20
2023-01-03T01:39:58.073Z,97.20
2023-01-03T01:42:40.787Z,97.20
2023-01-03T01:45:16.628Z,97.10
2023-01-03T01:47:53.811Z,97.10
2023-01-03T01:50:30.805Z,97.10
2023-01-03T01:53:05.270Z,97.10
2023-01-03T01:55:42.262Z,97.10
2023-01-03T01:58:13.603Z,97.10
2023-01-03T02:00:46.842Z,97.10
2023-01-03T02:03:18.943Z,97.10
2023-01-03T02:05:56.815Z,97.00
2023-01-03T02:08:27.823Z,97.00
2023-01-03T02:11:18.068Z,97.00
2023-01-03T02:13:56.809Z,96.90
2023-01-03T02:16:52.251Z,96.90
2023-01-03T02:19:52.104Z,96.90
2023-01-03T02:22:59.342Z,96.90
2023-01-03T02:26:02.897Z,96.90
2023-01-03T02:29:02.100Z,96.90
2023-01-03T02:31:40.990Z,96.90
2023-01-03T02:34:21.610Z,97.00
2023-01-03T02:37:03.231Z,97.00
2023-01-03T02:39:41.277Z,97.00
2023-01-03T02:42:29.753Z,96.90
2023-01-03T02:45:09.861Z,96.90
2023-01-03T02:47:49.838Z,96.90
2023-01-03T02:50:24.222Z,96.70
2023-01-03T02:52:59.835Z,96.70
2023-01-03T02:55:35.608Z,96.60
2023-01-03T02:58:10.665Z,96.30
2023-01-03T03:00:44.604Z,96.20
2023-01-03T03:03:20.972Z,96.10
2023-01-03T03:05:56.533Z,95.90
2023-01-03T03:08:27.409Z,95.70
2023-01-03T03:11:12.317Z,95.60
2023-01-03T03:13:47.027Z,95.10
2023-01-03T03:16:43.127Z,94.90
2023-01-03T03:19:47.497Z,94.90
2023-01-03T03:22:40.995Z,94.30
2023-01-03T03:25:17.146Z,94.30
2023-01-03T03:28:03.443Z,94.40
2023-01-03T03:30:38.108Z,94.10
2023-01-03T03:33:10.264Z,93.90
2023-01-03T03:35:49.836Z,94.00
2023-01-03T03:38:27.804Z,94.10
2023-01-03T03:41:21.018Z,94.00
2023-01-03T03:44:23.621Z,93.90
2023-01-03T03:47:04.222Z,93.70
2023-01-03T03:49:42.629Z,93.90
2023-01-03T03:52:20.083Z,93.50
2023-01-03T03:54:57.212Z,93.60
2023-01-03T03:57:30.727Z,93.80
2023-01-03T04:00:10.679Z,93.80
2023-01-03T04:02:47.246Z,94.00
2023-01-03T04:05:23.173Z,93.90
2023-01-03T04:07:56.755Z,93.70
2023-01-03T04:10:31.410Z,93.80
2023-01-03T04:13:07.696Z,93.80
2023-01-03T04:15:38.767Z,94.00
2023-01-03T04:18:10.070Z,93.70
2023-01-03T04:20:41.253Z,93.90
2023-01-03T04:23:15.020Z,93.60
2023-01-03T04:25:46.383Z,93.60
2023-01-03T04:28:18.016Z,93.60
2023-01-03T04:30:50.221Z,93.70
2023-01-03T04:33:21.883Z,93.60
2023-01-03T04:35:53.367Z,93.60
2023-01-03T04:38:26.731Z,93.60
2023-01-03T04:40:59.065Z,93.70
2023-01-03T04:43:42.863Z,93.50
2023-01-03T04:46:13.977Z,93.70
2023-01-03T04:48:45.212Z,93.50
2023-01-03T04:51:16.515Z,93.50
2023-01-03T04:53:50.164Z,93.60
2023-01-03T04:56:21.282Z,93.30
2023-01-03T04:58:52.003Z,93.70
2023-01-03T05:01:23.244Z,93.60
2023-01-03T05:03:54.828Z,93.50
2023-01-03T05:06:27.577Z,93.60
2023-01-03T05:09:01.789Z,93.60
2023-01-03T05:11:32.881Z,93.60
2023-01-03T05:14:05.137Z,93.70
2023-01-03T05:16:39.177Z,93.70
2023-01-03T05:19:10.297Z,93.80
2023-01-03T05:21:55.477Z,93.80
2023-01-03T05:24:41.374Z,93.80
2023-01-03T05:27:12.535Z,93.90
2023-01-03T05:29:44.352Z,93.90
2023-01-03T05:32:15.703Z,94.00
2023-01-03T05:34:46.599Z,94.00
2023-01-03T05:37:18.488Z,94.00
2023-01-03T05:39:51.983Z,94.10
2023-01-03T05:42:23.067Z,94.10
2023-01-03T05:44:53.853Z,94.10
2023-01-03T05:47:25.936Z,94.20
2023-01-03T05:49:56.808Z,94.20
2023-01-03T05:52:27.840Z,94.20
2023-01-03T05:55:01.183Z,94.30
2023-01-03T05:57:35.666Z,94.30
2023-01-03T06:00:07.876Z,94.40
2023-01-03T06:02:39.081Z,94.50
2023-01-03T06:05:10.304Z,94.60
2023-01-03T06:07:41.865Z,94.80
2023-01-03T06:10:15.548Z,94.80
2023-01-03T06:12:46.625Z,95.00
2023-01-03T06:15:17.601Z,95.20
2023-01-03T06:17:55.259Z,95.30
2023-01-03T06:20:25.998Z,95.40
2023-01-03T06:22:57.677Z,95.40
2023-01-03T06:25:31.065Z,95.50
2023-01-03T06:28:02.175Z,95.50
2023-01-03T06:30:33.184Z,95.50
2023-01-03T06:33:04.557Z,95.60
2023-01-03T06:35:34.921Z,95.60
2023-01-03T06:38:05.996Z,95.70
2023-01-03T06:40:45.545Z,95.60
2023-01-03T06:43:17.360Z,95.60
2023-01-03T06:46:01.464Z,95.60
2023-01-03T06:48:44.990Z,95.60
2023-01-03T06:51:31.917Z,95.60
2023-01-03T06:54:03.781Z,95.50
2023-01-03T06:56:37.380Z,95.50
2023-01-03T06:59:10.755Z,95.50
2023-01-03T07:01:42.521Z,95.50
2023-01-03T07:04:14.610Z,95.40
2023-01-03T07:06:46.101Z,95.20
2023-01-03T07:09:17.997Z,95.20
2023-01-03T07:11:52.190Z,95.10
2023-01-03T07:14:20.977Z,95.10
2023-01-03T07:16:52.824Z,95.10
2023-01-03T07:19:24.235Z,95.00
2023-01-03T07:21:55.870Z,95.00
2023-01-03T07:24:27.650Z,94.90
2023-01-03T07:27:01.755Z,94.90
2023-01-03T07:29:33.989Z,95.00
2023-01-03T07:32:05.219Z,95.00
2023-01-03T07:34:36.989Z,95.00
2023-01-03T07:37:07.923Z,95.00
2023-01-03T07:39:39.285Z,95.00
2023-01-03T07:42:26.607Z,95.10
2023-01-03T07:44:58.136Z,95.10
2023-01-03T07:47:29.621Z,95.00
2023-01-03T07:50:01.697Z,95.00
2023-01-03T07:52:32.554Z,95.00
2023-01-03T07:55:03.948Z,94.90
2023-01-03T07:57:38.488Z,94.90
2023-01-03T08:00:12.192Z,94.80
2023-01-03T08:02:46.271Z,94.80
2023-01-03T08:05:19.482Z,94.80
2023-01-03T08:07:51.535Z,94.70
2023-01-03T08:10:36.749Z,94.70
2023-01-03T08:13:22.030Z,94.70
2023-01-03T08:15:55.592Z,94.90
2023-01-03T08:18:29.576Z,94.40
2023-01-03T08:21:01.338Z,94.40
2023-01-03T08:23:33.020Z,94.40
2023-01-03T08:26:05.592Z,94.20
2023-01-03T08:28:39.731Z,93.80
2023-01-03T08:31:14.906Z,93.60
2023-01-03T08:33:50.076Z,93.40
2023-01-03T08:36:22.790Z,93.40
2023-01-03T08:38:56.899Z,93.10
2023-01-03T08:41:31.669Z,92.90
2023-01-03T08:44:06.782Z,92.80
2023-01-03T08:46:39.893Z,92.70
2023-01-03T08:49:11.064Z,92.10
2023-01-03T08:51:42.729Z,92.00
2023-01-03T08:54:13.306Z,91.80
2023-01-03T08:56:44.113Z,91.60
2023-01-03T08:59:17.539Z,90.80
2023-01-03T09:01:48.939Z,90.90
2023-01-03T09:04:20.644Z,91.20
2023-01-03T09:06:51.594Z,91.30
2023-01-03T09:09:22.251Z,91.00
2023-01-03T09:11:53.651Z,90.80
2023-01-03T09:14:27.213Z,91.00
2023-01-03T09:16:59.157Z,90.70
2023-01-03T09:19:30.063Z,91.50
2023-01-03T09:22:01.111Z,91.30
2023-01-03T09:24:32.148Z,91.40
2023-01-03T09:27:03.199Z,91.00
2023-01-03T09:29:36.456Z,91.20
2023-01-03T09:32:08.000Z,91.20
2023-01-03T09:34:38.702Z,91.30
2023-01-03T09:37:09.893Z,91.10
2023-01-03T09:39:40.785Z,91.20
2023-01-03T09:42:30.085Z,91.10
2023-01-03T09:45:03.502Z,90.80
2023-01-03T09:47:40.852Z,90.90
2023-01-03T09:50:39.464Z,90.90
2023-01-03T09:53:30.713Z,90.60
2023-01-03T09:56:16.050Z,90.70
2023-01-03T09:59:07.007Z,90.80
2023-01-03T10:01:58.815Z,90.50
2023-01-03T10:05:08.088Z,90.30
2023-01-03T10:08:15.992Z,89.50
2023-01-03T10:10:55.544Z,90.10
2023-01-03T10:13:38.779Z,90.10
2023-01-03T10:16:16.484Z,89.70
2023-01-03T10:19:14.863Z,89.00
2023-01-03T10:21:54.701Z,88.80
2023-01-03T10:24:27.987Z,89.10
2023-01-03T10:27:03.528Z,88.70
2023-01-03T10:29:35.123Z,88.80
2023-01-03T10:32:22.300Z,88.50
2023-01-03T10:35:20.272Z,87.20
2023-01-03T10:37:53.220Z,86.50
2023-01-03T10:40:24.917Z,87.60
2023-01-03T10:42:56.604Z,87.20
2023-01-03T10:45:27.438Z,87.10
2023-01-03T10:48:02.058Z,86.70
2023-01-03T10:50:41.259Z,86.70
2023-01-03T10:53:16.112Z,86.10
2023-01-03T10:55:52.440Z,86.00
2023-01-03T10:58:35.915Z,85.90
2023-01-03T11:01:22.543Z,85.70
2023-01-03T11:04:12.807Z,83.80
2023-01-03T11:07:01.699Z,84.30
2023-01-03T11:09:37.493Z,83.70
2023-01-03T11:12:14.649Z,83.60
2023-01-03T11:14:55.396Z,84.10
2023-01-03T11:17:28.284Z,84.00
2023-01-03T11:20:00.399Z,83.80
2023-01-03T11:22:44.542Z,83.90
2023-01-03T11:25:39.740Z,82.30
2023-01-03T11:28:49.447Z,82.90
2023-01-03T11:31:33.879Z,80.30
2023-01-03T11:34:21.786Z,82.90
2023-01-03T11:36:59.643Z,82.40
2023-01-03T11:39:45.415Z,81.40
2023-01-03T11:42:45.223Z,81.30
2023-01-03T11:45:36.780Z,81.30
2023-01-03T11:48:25.672Z,81.50
2023-01-03T11:50:59.751Z,81.20
2023-01-03T11:53:39.563Z,81.60
2023-01-03T11:56:21.804Z,81.50
2023-01-03T11:59:07.073Z,81.40
2023-01-03T12:01:54.908Z,81.30
2023-01-03T12:04:32.359Z,80.60
2023-01-03T12:10:14.492Z,80.70
2023-01-03T12:13:10.543Z,80.80
2023-01-03T12:15:48.681Z,80.70
2023-01-03T12:18:31.745Z,81.60
2023-01-03T12:21:07.968Z,80.60
2023-01-03T12:23:44.561Z,80.90
2023-01-03T12:26:18.501Z,81.10
2023-01-03T12:28:59.424Z,81.30
2023-01-03T12:31:35.935Z,81.30
2023-01-03T12:34:17.023Z,81.50
2023-01-03T12:36:56.642Z,81.60
2023-01-03T12:39:39.986Z,80.90
2023-01-03T12:42:23.345Z,80.20
2023-01-03T12:45:03.751Z,80.70
2023-01-03T12:47:41.120Z,80.60
2023-01-03T12:50:19.707Z,80.60
2023-01-03T12:52:59.848Z,80.90
2023-01-03T12:55:46.173Z,80.70
2023-01-03T12:58:39.516Z,80.70
2023-01-03T13:01:18.206Z,80.60
2023-01-03T13:03:55.519Z,80.90
2023-01-03T13:06:31.578Z,81.00
2023-01-03T13:09:07.282Z,81.20
2023-01-03T13:11:41.559Z,81.40
2023-01-03T13:14:21.549Z,81.50
2023-01-03T13:16:56.689Z,81.40
2023-01-03T13:19:58.236Z,81.80
2023-01-03T13:22:54.183Z,81.70
2023-01-03T13:25:42.753Z,81.60
2023-01-03T13:28:36.127Z,81.90
2023-01-03T13:31:39.831Z,81.70
2023-01-03T13:34:36.319Z,82.00
2023-01-03T13:37:28.692Z,82.30
2023-01-03T13:40:34.689Z,82.30
2023-01-03T13:43:21.518Z,82.40
2023-01-03T13:45:59.121Z,82.70
2023-01-03T13:48:53.803Z,82.70
2023-01-03T13:51:38.794Z,82.70
2023-01-03T13:54:58.032Z,82.60
2023-01-03T13:57:36.937Z,82.10
2023-01-03T14:00:20.692Z,82.50
2023-01-03T14:03:36.991Z,82.60
2023-01-03T14:06:39.210Z,82.20
2023-01-03T14:09:37.968Z,82.40
2023-01-03T14:12:29.563Z,82.30
2023-01-03T14:15:00.716Z,82.40
2023-01-03T14:17:35.367Z,82.00
2023-01-03T14:20:11.106Z,82.70
2023-01-03T14:22:44.585Z,82.70
2023-01-03T14:25:40.223Z,82.90
2023-01-03T14:28:21.629Z,82.80
2023-01-03T14:30:55.080Z,82.70
2023-01-03T14:33:33.346Z,82.20
2023-01-03T14:36:13.371Z,82.90
2023-01-03T14:38:51.140Z,83.20
2023-01-03T14:41:32.500Z,83.00
2023-01-03T14:44:07.383Z,83.20
2023-01-03T14:46:39.898Z,83.50
2023-01-03T14:49:24.202Z,83.40
2023-01-03T14:52:01.109Z,83.30
2023-01-03T14:54:33.126Z,83.40
2023-01-03T14:57:07.884Z,83.60
2023-01-03T14:59:39.037Z,83.90
2023-01-03T15:02:09.882Z,83.90
2023-01-03T15:04:44.386Z,83.80
2023-01-03T15:07:31.933Z,83.90
2023-01-03T15:10:10.421Z,84.40
2023-01-03T15:12:47.488Z,84.60
2023-01-03T15:15:25.771Z,84.80
2023-01-03T15:18:00.129Z,84.90
2023-01-03T15:20:37.722Z,85.20
2023-01-03T15:23:09.486Z,85.30
2023-01-03T15:25:43.849Z,85.50
2023-01-03T15:28:28.104Z,85.70
2023-01-03T15:31:01.861Z,86.00
2023-01-03T15:33:35.352Z,86.20
2023-01-03T15:36:14.736Z,86.50
2023-01-03T15:38:50.648Z,86.80
2023-01-03T15:41:38.835Z,87.00
2023-01-03T15:44:13.557Z,87.40
2023-01-03T15:46:47.174Z,87.50
2023-01-03T15:49:22.816Z,87.70
2023-01-03T15:51:53.990Z,87.80
2023-01-03T15:54:24.698Z,87.80
2023-01-03T15:57:02.330Z,88.40
2023-01-03T15:59:43.098Z,88.20
2023-01-03T16:02:19.948Z,88.30
2023-01-03T16:04:54.521Z,88.30
2023-01-03T16:07:26.553Z,88.20
2023-01-03T16:09:57.548Z,88.30
2023-01-03T16:12:36.088Z,88.50
2023-01-03T16:15:15.486Z,88.80
2023-01-03T16:17:47.364Z,88.80
2023-01-03T16:20:20.538Z,88.90
2023-01-03T16:23:01.128Z,89.10
2023-01-03T16:25:33.628Z,89.30
2023-01-03T16:28:12.118Z,89.40
2023-01-03T16:30:46.737Z,89.50
2023-01-03T16:33:22.632Z,89.70
2023-01-03T16:35:54.076Z,90.00
2023-01-03T16:38:26.377Z,90.00
2023-01-03T16:40:57.428Z,90.00
2023-01-03T16:43:29.218Z,90.10
2023-01-03T16:46:04.165Z,90.10
2023-01-03T16:48:41.121Z,90.10
2023-01-03T16:51:25.131Z,90.10
2023-01-03T16:53:59.357Z,90.10
2023-01-03T16:56:30.904Z,90.20
2023-01-03T16:59:02.624Z,90.20
2023-01-03T17:01:36.503Z,90.20
2023-01-03T17:04:12.015Z,90.30
2023-01-03T17:06:44.196Z,90.30
2023-01-03T17:09:20.677Z,90.40
2023-01-03T17:11:52.412Z,90.50
2023-01-03T17:14:26.501Z,90.40
2023-01-03T17:17:00.098Z,90.40
2023-01-03T17:22:25.834Z,90.40
2023-01-03T17:24:57.195Z,90.40
2023-01-03T17:27:32.648Z,90.40
2023-01-03T17:30:07.013Z,90.40
2023-01-03T17:32:41.947Z,90.40
2023-01-03T17:35:16.401Z,90.40
2023-01-03T17:40:40.934Z,90.40
2023-01-03T17:43:22.216Z,90.50
2023-01-03T17:46:09.916Z,90.50
2023-01-03T17:48:55.897Z,90.50
2023-01-03T17:51:28.118Z,90.50
2023-01-03T17:53:59.228Z,90.50
2023-01-03T17:56:31.472Z,90.60
2023-01-03T17:59:05.027Z,90.60
2023-01-03T18:01:37.461Z,90.60
2023-01-03T18:04:12.408Z,90.60
2023-01-03T18:06:44.416Z,90.70
2023-01-03T18:09:19.804Z,90.70
2023-01-03T18:11:54.854Z,90.70
2023-01-03T18:14:26.603Z,90.80
2023-01-03T18:16:57.815Z,90.80
2023-01-03T18:19:31.428Z,90.80
2023-01-03T18:22:02.896Z,90.80
2023-01-03T18:24:34.008Z,90.90
2023-01-03T18:27:05.474Z,90.90
2023-01-03T18:29:36.338Z,90.90
2023-01-03T18:32:25.602Z,91.00
2023-01-03T18:35:00.161Z,91.00
2023-01-03T18:37:36.271Z,91.00
2023-01-03T18:40:09.861Z,91.00
2023-01-03T18:42:53.571Z,91.00
2023-01-03T18:45:25.144Z,91.00
2023-01-03T18:47:56.568Z,91.00
2023-01-03T18:50:30.447Z,91.00
2023-01-03T18:53:04.790Z,91.10
2023-01-03T18:55:38.013Z,91.10
2023-01-03T18:58:17.723Z,91.30
2023-01-03T19:00:49.110Z,91.50
2023-01-03T19:03:25.737Z,91.50
2023-01-03T19:06:01.139Z,91.60
2023-01-03T19:08:35.876Z,91.70
2023-01-03T19:11:16.012Z,91.70
2023-01-03T19:13:54.842Z,91.70
2023-01-03T19:16:27.487Z,91.80
2023-01-03T19:18:59.773Z,91.70
2023-01-03T19:21:37.258Z,91.70
2023-01-03T19:24:18.122Z,91.70
2023-01-03T19:26:52.693Z,91.70
2023-01-03T19:29:27.122Z,91.80
2023-01-03T19:32:00.108Z,91.80
2023-01-03T19:34:31.807Z,91.90
2023-01-03T19:37:06.728Z,92.00
2023-01-03T19:39:38.115Z,92.00
2023-01-03T19:42:27.588Z,92.00
2023-01-03T19:44:58.891Z,92.00
2023-01-03T19:47:30.178Z,92.00
2023-01-03T19:50:11.020Z,92.00
2023-01-03T19:52:45.516Z,92.00
2023-01-03T19:55:17.103Z,92.10
2023-01-03T19:57:50.773Z,92.10
2023-01-03T20:00:24.521Z,92.10
2023-01-03T20:02:58.514Z,92.20
2023-01-03T20:05:35.701Z,92.20
2023-01-03T20:08:12.519Z,92.20
2023-01-03T20:10:45.793Z,92.40
2023-01-03T20:13:20.047Z,92.40
2023-01-03T20:15:52.750Z,92.40
2023-01-03T20:18:29.675Z,92.40
2023-01-03T20:21:03.055Z,92.40
2023-01-03T20:23:40.109Z,92.50
2023-01-03T20:26:20.525Z,92.50
2023-01-03T20:28:52.680Z,92.60
2023-01-03T20:31:26.389Z,92.60
2023-01-03T20:33:59.481Z,92.70
2023-01-03T20:36:37.632Z,92.70
2023-01-03T20:39:26.612Z,92.90
2023-01-03T20:42:03.279Z,92.90
2023-01-03T20:44:34.639Z,92.90
2023-01-03T20:47:07.672Z,93.00
2023-01-03T20:49:39.471Z,93.00
2023-01-03T20:52:18.081Z,93.00
2023-01-03T20:54:52.108Z,93.00
2023-01-03T20:57:23.730Z,93.00
2023-01-03T20:59:54.965Z,93.00
2023-01-03T21:02:26.820Z,92.80
2023-01-03T21:04:58.147Z,92.90
2023-01-03T21:07:51.999Z,92.90
2023-01-03T21:10:31.056Z,92.80
2023-01-03T21:13:02.240Z,92.80
2023-01-03T21:15:34.344Z,92.80
2023-01-03T21:18:07.187Z,92.70
2023-01-03T21:20:38.545Z,92.80
2023-01-03T21:23:10.419Z,92.80
2023-01-03T21:25:44.215Z,92.70
2023-01-03T21:28:16.422Z,92.70
2023-01-03T21:30:48.099Z,92.70
2023-01-03T21:33:21.960Z,92.70
2023-01-03T21:35:53.776Z,92.80
2023-01-03T21:38:25.967Z,92.80
2023-01-03T21:41:00.429Z,92.80
2023-01-03T21:43:32.352Z,92.80
2023-01-03T21:46:04.000Z,92.80
2023-01-03T21:48:35.360Z,92.80
2023-01-03T21:51:08.260Z,92.80
2023-01-03T21:53:40.248Z,92.70
2023-01-03T21:56:21.443Z,92.70
2023-01-03T21:58:53.920Z,92.70
2023-01-03T22:01:26.134Z,92.80
2023-01-03T22:04:10.255Z,92.90
2023-01-03T22:06:41.448Z,92.80
2023-01-03T22:09:34.683Z,92.80
2023-01-03T22:12:08.527Z,92.90
2023-01-03T22:14:40.307Z,92.90
2023-01-03T22:17:11.704Z,92.90
2023-01-03T22:19:44.050Z,92.80
2023-01-03T22:22:15.022Z,92.90
2023-01-03T22:24:46.340Z,92.80
2023-01-03T22:27:19.840Z,92.90
2023-01-03T22:29:51.051Z,93.20
2023-01-03T22:32:26.196Z,93.00
2023-01-03T22:34:57.617Z,93.10
2023-01-03T22:37:28.490Z,93.10
2023-01-03T22:39:59.960Z,93.30
2023-01-03T22:42:33.473Z,93.40
2023-01-03T22:45:05.304Z,93.20
2023-01-03T22:47:37.572Z,93.10
2023-01-03T22:50:11.215Z,93.10
2023-01-03T22:52:42.806Z,93.10
2023-01-03T22:55:14.514Z,93.20
2023-01-03T22:57:48.122Z,93.20
2023-01-03T23:00:19.820Z,93.10
2023-01-03T23:02:50.709Z,93.10
2023-01-03T23:05:22.714Z,93.10
2023-01-03T23:07:54.216Z,93.00
2023-01-03T23:10:25.272Z,93.00
2023-01-03T23:12:59.132Z,93.00
2023-01-03T23:15:32.253Z,93.00
2023-01-03T23:18:03.057Z,93.10
2023-01-03T23:20:49.058Z,93.00
2023-01-03T23:23:21.014Z,93.10
2023-01-03T23:25:52.244Z,93.10
2023-01-03T23:28:25.789Z,93.10
2023-01-03T23:30:57.003Z,93.30
2023-01-03T23:33:27.967Z,93.10
2023-01-03T23:35:59.210Z,93.20
2023-01-03T23:38:31.632Z,93.20
2023-01-03T23:41:05.992Z,93.00
2023-01-03T23:43:40.056Z,93.00
2023-01-03T23:46:16.654Z,92.90
2023-01-03T23:48:47.502Z,93.00
2023-01-03T23:51:19.644Z,93.00
2023-01-03T23:53:50.427Z,93.10
2023-01-03T23:56:23.530Z,93.10
2023-01-03T23:58:57.180Z,93.30
